Time;durP1;ratioP1;P1;durP2;ratioP2;P2;SDS_P1;SDS_P2;PMS_P1;PMS_P2;Temp;Humidity;BMP_temperature;BMP_pressure;BME280_temperature;BME280_humidity;BME280_pressure;Samples;Min_cycle;Max_cycle;Signal;HPM_P1;HPM_P2
2023/12/03 00:02:25;;;;;;;;;;;;;;;1.29;84.76;100795.52;106134;1259;61214;-78
2023/12/03 00:04:53;;;;;;;;;;;;;;;1.26;84.67;100797.58;105770;1254;124732;-77
2023/12/03 00:07:23;;;;;;;;;;;;;;;1.29;84.92;100797.09;106195;1254;73156;-77
2023/12/03 00:09:50;;;;;;;;;;;;;;;1.33;85.12;100797.84;106257;1254;66168;-78
2023/12/03 00:12:17;;;;;;;;;;;;;;;1.35;84.95;100796.95;106117;1254;125416;-78
2023/12/03 00:14:44;;;;;;;;;;;;;;;1.39;85.01;100798.55;106189;1254;61416;-78
2023/12/03 00:17:10;;;;;;;;;;;;;;;1.39;84.98;100793.20;106129;1254;124448;-78
2023/12/03 00:19:37;;;;;;;;;;;;;;;1.39;84.87;100794.73;106223;1254;73474;-77
2023/12/03 00:22:04;;;;;;;;;;;;;;;1.36;84.86;100792.17;106052;1254;64975;-77
2023/12/03 00:24:30;;;;;;;;;;;;;;;1.35;84.79;100794.02;105999;1255;124955;-79
2023/12/03 00:26:58;;;;;;;;;;;;;;;1.34;84.78;100797.77;106176;1254;61258;-78
2023/12/03 00:29:25;;;;;;;;;;;;;;;1.34;84.85;100804.15;106102;1254;124910;-78
2023/12/03 00:31:54;;;;;;;;;;;;;;;1.32;84.70;100800.93;105964;1260;72821;-78
2023/12/03 00:34:21;;;;;;;;;;;;;;;1.34;84.88;100802.59;106116;1254;66392;-78
2023/12/03 00:36:47;;;;;;;;;;;;;;;1.35;84.84;100805.77;106134;1254;124352;-78
2023/12/03 00:39:14;;;;;;;;;;;;;;;1.34;84.62;100807.41;106260;1257;61220;-78
2023/12/03 00:41:41;;;;;;;;;;;;;;;1.31;84.69;100805.82;106236;1254;125051;-78
2023/12/03 00:44:08;;;;;;;;;;;;;;;1.28;84.53;100811.23;106193;1258;73337;-78
2023/12/03 00:46:35;;;;;;;;;;;;;;;1.26;84.46;100809.67;106083;1257;124729;-78
2023/12/03 00:49:01;;;;;;;;;;;;;;;1.23;84.61;100807.60;106273;1254;71412;-78
2023/12/03 00:51:28;;;;;;;;;;;;;;;1.22;84.57;100812.20;106213;1256;59498;-77
2023/12/03 00:53:55;;;;;;;;;;;;;;;1.18;84.66;100813.50;106123;1254;124372;-79
2023/12/03 00:56:21;;;;;;;;;;;;;;;1.16;84.62;100814.92;106750;1254;74674;-78
2023/12/03 00:58:48;;;;;;;;;;;;;;;1.14;84.66;100815.16;105925;1254;125124;-78
2023/12/03 01:01:15;;;;;;;;;;;;;;;1.09;84.52;100816.09;106163;1259;71520;-77
2023/12/03 01:03:41;;;;;;;;;;;;;;;1.05;84.60;100818.23;106209;1259;61292;-77
2023/12/03 01:06:08;;;;;;;;;;;;;;;1.03;84.57;100820.84;106141;1258;124092;-77
2023/12/03 01:08:35;;;;;;;;;;;;;;;1.01;84.62;100827.98;106240;1259;73250;-78
2023/12/03 01:11:05;;;;;;;;;;;;;;;1.02;84.73;100828.54;106024;1259;124060;-78
2023/12/03 01:13:32;;;;;;;;;;;;;;;1.04;84.74;100828.85;106167;1258;70057;-78
2023/12/03 01:15:59;;;;;;;;;;;;;;;1.03;84.90;100831.73;106122;1254;59486;-78
2023/12/03 01:18:25;;;;;;;;;;;;;;;1.02;84.87;100829.09;106028;1259;123973;-78
2023/12/03 01:20:52;;;;;;;;;;;;;;;1.01;84.77;100831.92;106139;1254;74506;-78
2023/12/03 01:23:19;;;;;;;;;;;;;;;0.95;84.94;100832.13;106138;1254;123753;-78
2023/12/03 01:25:46;;;;;;;;;;;;;;;0.93;84.87;100832.85;106191;1258;72663;-77
2023/12/03 01:28:13;;;;;;;;;;;;;;;0.94;84.94;100831.88;106131;1259;61355;-77
2023/12/03 01:30:39;;;;;;;;;;;;;;;0.98;85.15;100830.73;106145;1259;125064;-77
2023/12/03 01:33:06;;;;;;;;;;;;;;;1.01;85.33;100832.11;106274;1260;74729;-77
2023/12/03 01:35:33;;;;;;;;;;;;;;;1.02;85.36;100832.37;106094;1259;124179;-78
2023/12/03 01:37:59;;;;;;;;;;;;;;;1.04;85.42;100833.02;106084;1257;72575;-78
2023/12/03 01:40:26;;;;;;;;;;;;;;;1.06;85.50;100834.48;106061;1254;124235;-78
2023/12/03 01:42:54;;;;;;;;;;;;;;;1.07;85.61;100835.14;106263;1253;61914;-78
2023/12/03 01:45:20;;;;;;;;;;;;;;;1.11;85.71;100839.51;106248;1255;74692;-78
2023/12/03 01:47:47;;;;;;;;;;;;;;;1.15;85.87;100841.47;105962;1255;125849;-78
2023/12/03 01:50:14;;;;;;;;;;;;;;;1.16;85.82;100840.02;105739;1261;73996;-77
2023/12/03 01:52:41;;;;;;;;;;;;;;;1.22;85.98;100838.45;105992;1254;125116;-77
2023/12/03 01:55:08;;;;;;;;;;;;;;;1.24;85.78;100840.86;106185;1254;61351;-79
2023/12/03 01:57:35;;;;;;;;;;;;;;;1.28;86.01;100843.84;106537;1256;74794;-78
2023/12/03 02:00:04;;;;;;;;;;;;;;;1.32;86.02;100836.36;106044;1260;124381;-77
2023/12/03 02:02:31;;;;;;;;;;;;;;;1.36;86.03;100843.20;106073;1257;71553;-77
2023/12/03 02:04:58;;;;;;;;;;;;;;;1.39;85.99;100842.50;105966;1256;124734;-77
2023/12/03 02:07:24;;;;;;;;;;;;;;;1.41;85.98;100843.45;105922;1254;59908;-77
2023/12/03 02:09:51;;;;;;;;;;;;;;;1.42;85.83;100846.45;106007;1256;74396;-79
2023/12/03 02:12:18;;;;;;;;;;;;;;;1.41;85.88;100845.88;106186;1258;124620;-78
2023/12/03 02:14:45;;;;;;;;;;;;;;;1.42;85.75;100847.86;106082;1258;72710;-76
2023/12/03 02:17:11;;;;;;;;;;;;;;;1.42;85.69;100850.64;105877;1256;124713;-76
2023/12/03 02:19:38;;;;;;;;;;;;;;;1.43;85.73;100852.39;105858;1260;61474;-77
2023/12/03 02:22:05;;;;;;;;;;;;;;;1.45;85.88;100852.71;105941;1256;73394;-77
2023/12/03 02:24:32;;;;;;;;;;;;;;;1.47;86.00;100858.72;105988;1256;124411;-77
2023/12/03 02:26:59;;;;;;;;;;;;;;;1.48;85.93;100856.18;106020;1256;72705;-77
2023/12/03 02:29:26;;;;;;;;;;;;;;;1.49;85.80;100859.39;106006;1254;124551;-77
2023/12/03 02:31:52;;;;;;;;;;;;;;;1.49;85.81;100859.52;106073;1254;61750;-76
2023/12/03 02:34:19;;;;;;;;;;;;;;;1.47;85.68;100859.20;106176;1254;73699;-78
2023/12/03 02:36:46;;;;;;;;;;;;;;;1.51;85.85;100863.84;105983;1256;124459;-78
2023/12/03 02:39:13;;;;;;;;;;;;;;;1.51;85.91;100869.02;106110;1257;71665;-78
2023/12/03 02:41:39;;;;;;;;;;;;;;;1.51;85.67;100867.31;106118;1260;124652;-77
2023/12/03 02:44:06;;;;;;;;;;;;;;;1.51;85.71;100869.89;106112;1259;60054;-77
2023/12/03 02:46:34;;;;;;;;;;;;;;;1.51;85.75;100869.90;106024;1257;125309;-77
2023/12/03 02:49:01;;;;;;;;;;;;;;;1.52;85.73;100870.98;106183;1254;66318;-78
2023/12/03 02:51:28;;;;;;;;;;;;;;;1.52;85.63;100876.02;106141;1258;72769;-78
2023/12/03 02:53:55;;;;;;;;;;;;;;;1.51;85.47;100881.61;106025;1260;124668;-78
2023/12/03 02:56:21;;;;;;;;;;;;;;;1.49;85.58;100879.95;106111;1258;60133;-78
2023/12/03 02:58:48;;;;;;;;;;;;;;;1.48;85.62;100877.44;105969;1259;124764;-83
2023/12/03 03:01:15;;;;;;;;;;;;;;;1.48;85.46;100881.95;106693;1258;66051;-83
2023/12/03 03:03:41;;;;;;;;;;;;;;;1.47;85.66;100885.52;106653;1256;71370;-83
2023/12/03 03:06:08;;;;;;;;;;;;;;;1.45;85.40;100886.10;106518;1256;124617;-83
2023/12/03 03:08:35;;;;;;;;;;;;;;;1.43;85.48;100889.94;106698;1256;60213;-83
2023/12/03 03:11:01;;;;;;;;;;;;;;;1.42;85.61;100890.24;106535;1258;124708;-83
2023/12/03 03:13:28;;;;;;;;;;;;;;;1.42;85.54;100891.42;106516;1260;66005;-83
2023/12/03 03:15:55;;;;;;;;;;;;;;;1.41;85.46;100896.73;106734;1258;72524;-83
2023/12/03 03:18:21;;;;;;;;;;;;;;;1.39;85.41;100899.55;106714;1258;123451;-82
2023/12/03 03:20:48;;;;;;;;;;;;;;;1.39;85.50;100899.88;106703;1259;61337;-82
2023/12/03 03:23:15;;;;;;;;;;;;;;;1.38;85.57;100900.17;106606;1257;124611;-82
2023/12/03 03:25:42;;;;;;;;;;;;;;;1.38;85.58;100900.16;106606;1260;65149;-78
2023/12/03 03:28:09;;;;;;;;;;;;;;;1.40;85.57;100902.88;105994;1261;72725;-78
2023/12/03 03:30:35;;;;;;;;;;;;;;;1.39;85.72;100902.85;105985;1260;124973;-78
2023/12/03 03:33:02;;;;;;;;;;;;;;;1.39;85.58;100905.71;106192;1259;61263;-83
2023/12/03 03:35:29;;;;;;;;;;;;;;;1.39;85.61;100905.96;106698;1253;124609;-82
2023/12/03 03:37:55;;;;;;;;;;;;;;;1.40;85.75;100905.13;106805;1267;64936;-82
2023/12/03 03:40:22;;;;;;;;;;;;;;;1.40;85.74;100906.90;106766;1254;72431;-82
2023/12/03 03:42:49;;;;;;;;;;;;;;;1.40;85.69;100908.75;106897;1260;61273;-82
2023/12/03 03:45:15;;;;;;;;;;;;;;;1.38;85.55;100911.24;106838;1254;61122;-82
2023/12/03 03:47:42;;;;;;;;;;;;;;;1.39;85.63;100909.89;106746;1254;124744;-82
2023/12/03 03:50:09;;;;;;;;;;;;;;;1.36;85.64;100911.31;106891;1260;64775;-81
2023/12/03 03:52:36;;;;;;;;;;;;;;;1.36;85.66;100912.30;106146;1259;125055;-83
2023/12/03 03:55:03;;;;;;;;;;;;;;;1.35;85.61;100914.66;106185;1254;61454;-82
2023/12/03 03:57:29;;;;;;;;;;;;;;;1.35;85.63;100918.80;106278;1255;61362;-81
2023/12/03 03:59:56;;;;;;;;;;;;;;;1.35;85.71;100920.93;106386;1257;124390;-81
2023/12/03 04:02:23;;;;;;;;;;;;;;;1.36;85.93;100922.91;106277;1254;64652;-82
2023/12/03 04:04:50;;;;;;;;;;;;;;;1.35;85.52;100924.20;106289;1254;124699;-77
2023/12/03 04:07:20;;;;;;;;;;;;;;;1.34;85.78;100929.33;107231;1254;61317;-77
2023/12/03 04:09:47;;;;;;;;;;;;;;;1.34;85.77;100932.23;107682;1258;60127;-78
2023/12/03 04:12:14;;;;;;;;;;;;;;;1.35;85.87;100930.40;106204;1256;167956;-77
2023/12/03 04:14:41;;;;;;;;;;;;;;;1.37;85.60;100933.98;106131;1259;67354;-77
2023/12/03 04:17:08;;;;;;;;;;;;;;;1.35;85.50;100938.38;106064;1260;124740;-77
2023/12/03 04:19:35;;;;;;;;;;;;;;;1.31;85.48;100936.41;106221;1254;61180;-77
2023/12/03 04:22:02;;;;;;;;;;;;;;;1.27;85.60;100937.15;106186;1257;61291;-77
2023/12/03 04:24:29;;;;;;;;;;;;;;;1.20;85.26;100936.39;106100;1254;124961;-77
2023/12/03 04:26:56;;;;;;;;;;;;;;;1.13;85.24;100940.05;106201;1260;64780;-78
2023/12/03 04:29:22;;;;;;;;;;;;;;;1.05;85.26;100937.95;105887;1254;124406;-78
2023/12/03 04:31:49;;;;;;;;;;;;;;;0.95;85.31;100939.59;106224;1259;61175;-78
2023/12/03 04:34:16;;;;;;;;;;;;;;;0.86;85.20;100939.86;106181;1254;61245;-78
2023/12/03 04:36:43;;;;;;;;;;;;;;;0.78;85.30;100941.00;106100;1254;124238;-78
2023/12/03 04:39:10;;;;;;;;;;;;;;;0.68;85.12;100939.27;106136;1260;66309;-77
2023/12/03 04:41:37;;;;;;;;;;;;;;;0.60;85.20;100942.37;106024;1260;124475;-77
2023/12/03 04:44:04;;;;;;;;;;;;;;;0.51;85.38;100948.51;106111;1257;61247;-77
2023/12/03 04:46:31;;;;;;;;;;;;;;;0.42;85.19;100946.34;106020;1260;123888;-78
2023/12/03 04:48:57;;;;;;;;;;;;;;;0.32;85.30;100947.93;106165;1259;73893;-78
2023/12/03 04:51:24;;;;;;;;;;;;;;;0.24;85.23;100952.52;106339;1257;67524;-82
2023/12/03 04:53:51;;;;;;;;;;;;;;;0.15;85.28;100949.51;106768;1254;123866;-82
2023/12/03 04:56:18;;;;;;;;;;;;;;;0.05;85.24;100952.08;106927;1254;61295;-82
2023/12/03 04:58:44;;;;;;;;;;;;;;;-0.05;85.38;100948.30;106722;1254;124220;-82
2023/12/03 05:01:12;;;;;;;;;;;;;;;-0.14;85.46;100946.29;106774;1260;74384;-83
2023/12/03 05:03:39;;;;;;;;;;;;;;;-0.21;85.51;100951.62;106670;1254;66008;-82
2023/12/03 05:06:06;;;;;;;;;;;;;;;-0.27;85.51;100955.05;106719;1254;124457;-82
2023/12/03 05:08:32;;;;;;;;;;;;;;;-0.29;85.93;100958.18;106896;1259;59698;-82
2023/12/03 05:11:02;;;;;;;;;;;;;;;-0.27;86.22;100956.93;106779;1254;124942;-82
2023/12/03 05:13:29;;;;;;;;;;;;;;;-0.22;86.26;100957.60;107209;1253;74595;-82
2023/12/03 05:15:55;;;;;;;;;;;;;;;-0.14;86.29;100959.15;106289;1254;66262;-82
2023/12/03 05:18:22;;;;;;;;;;;;;;;-0.08;86.42;100959.92;106107;1255;125093;-82
2023/12/03 05:20:49;;;;;;;;;;;;;;;-0.05;86.44;100959.52;106187;1257;61243;-82
2023/12/03 05:23:16;;;;;;;;;;;;;;;-0.01;86.27;100959.05;106109;1257;124814;-81
2023/12/03 05:25:42;;;;;;;;;;;;;;;0.00;86.10;100961.40;106275;1258;72981;-82
2023/12/03 05:28:09;;;;;;;;;;;;;;;0.00;85.92;100964.00;106340;1254;66230;-77
2023/12/03 05:30:37;;;;;;;;;;;;;;;-0.01;85.68;100968.39;105991;1257;124649;-77
2023/12/03 05:33:03;;;;;;;;;;;;;;;-0.04;85.49;100969.43;106127;1260;61350;-82
2023/12/03 05:35:30;;;;;;;;;;;;;;;-0.06;85.30;100973.61;105962;1254;125298;-81
2023/12/03 05:37:57;;;;;;;;;;;;;;;-0.06;85.35;100978.38;106269;1255;75037;-81
2023/12/03 05:40:23;;;;;;;;;;;;;;;-0.09;85.12;100980.23;106323;1257;66269;-82
2023/12/03 05:42:50;;;;;;;;;;;;;;;-0.13;84.98;100983.23;106249;1257;73247;-81
2023/12/03 05:45:17;;;;;;;;;;;;;;;-0.18;85.05;100984.42;106536;1254;61445;-82
2023/12/03 05:47:44;;;;;;;;;;;;;;;-0.22;84.94;100982.77;106274;1254;124921;-82
2023/12/03 05:50:10;;;;;;;;;;;;;;;-0.26;84.84;100985.44;106191;1253;74664;-82
2023/12/03 05:52:37;;;;;;;;;;;;;;;-0.29;84.94;100985.89;106184;1258;125863;-81
2023/12/03 05:55:04;;;;;;;;;;;;;;;-0.31;84.82;100986.59;106258;1254;71773;-82
2023/12/03 05:57:31;;;;;;;;;;;;;;;-0.31;84.94;100987.30;106402;1254;61212;-82
2023/12/03 05:59:57;;;;;;;;;;;;;;;-0.32;85.08;100986.70;106219;1255;124784;-82
2023/12/03 06:02:25;;;;;;;;;;;;;;;-0.34;84.96;100992.97;106274;1257;74673;-82
2023/12/03 06:04:51;;;;;;;;;;;;;;;-0.35;84.96;100994.75;106150;1258;125469;-82
2023/12/03 06:07:18;;;;;;;;;;;;;;;-0.39;84.84;101004.16;106204;1254;72691;-82
2023/12/03 06:09:45;;;;;;;;;;;;;;;-0.43;84.76;101007.49;106273;1259;61333;-82
2023/12/03 06:12:12;;;;;;;;;;;;;;;-0.46;84.85;101009.34;106099;1253;124597;-82
2023/12/03 06:14:38;;;;;;;;;;;;;;;-0.50;84.73;101013.66;106124;1254;73387;-82
2023/12/03 06:17:05;;;;;;;;;;;;;;;-0.55;84.56;101017.79;106195;1254;125852;-82
2023/12/03 06:19:32;;;;;;;;;;;;;;;-0.60;84.70;101015.40;106236;1263;72451;-82
2023/12/03 06:21:58;;;;;;;;;;;;;;;-0.64;84.73;101018.86;106308;1254;61366;-82
2023/12/03 06:24:25;;;;;;;;;;;;;;;-0.69;84.50;101027.45;106206;1258;124719;-82
2023/12/03 06:26:52;;;;;;;;;;;;;;;-0.73;84.42;101030.27;106138;1265;75653;-82
2023/12/03 06:29:19;;;;;;;;;;;;;;;-0.77;84.49;101033.61;106142;1254;166802;-81
2023/12/03 06:31:49;;;;;;;;;;;;;;;-0.81;84.50;101035.85;106236;1254;72653;-81
2023/12/03 06:34:16;;;;;;;;;;;;;;;-0.85;84.56;101038.84;106102;1259;61180;-81
2023/12/03 06:36:42;;;;;;;;;;;;;;;-0.89;84.34;101039.20;106062;1254;124526;-81
2023/12/03 06:39:09;;;;;;;;;;;;;;;-0.95;84.21;101038.63;106186;1254;74668;-82
2023/12/03 06:41:36;;;;;;;;;;;;;;;-1.01;84.23;101038.71;106175;1254;124812;-81
2023/12/03 06:44:03;;;;;;;;;;;;;;;-1.05;84.25;101041.64;106233;1254;71270;-82
2023/12/03 06:46:30;;;;;;;;;;;;;;;-1.10;84.21;101043.16;106126;1254;125071;-81
2023/12/03 06:48:56;;;;;;;;;;;;;;;-1.14;84.22;101048.34;106292;1254;61502;-82
2023/12/03 06:51:23;;;;;;;;;;;;;;;-1.18;84.30;101049.45;106148;1260;75441;-82
2023/12/03 06:53:50;;;;;;;;;;;;;;;-1.21;84.19;101051.84;105828;1259;218924;-82
2023/12/03 06:56:16;;;;;;;;;;;;;;;-1.23;84.23;101052.71;106239;1254;72680;-82
2023/12/03 06:58:43;;;;;;;;;;;;;;;-1.24;84.17;101052.29;106793;1254;124945;-82
2023/12/03 07:01:11;;;;;;;;;;;;;;;-1.25;84.21;101057.15;106885;1254;61262;-83
2023/12/03 07:03:38;;;;;;;;;;;;;;;-1.26;84.24;101055.02;106823;1258;74645;-83
2023/12/03 07:06:05;;;;;;;;;;;;;;;-1.27;84.16;101058.94;106689;1255;125528;-82
2023/12/03 07:08:31;;;;;;;;;;;;;;;-1.26;84.41;101061.03;106893;1254;72512;-82
2023/12/03 07:11:01;;;;;;;;;;;;;;;-1.26;84.14;101060.36;106160;1254;125238;-81
2023/12/03 07:13:27;;;;;;;;;;;;;;;-1.27;84.23;101062.41;106353;1257;61366;-81
2023/12/03 07:15:54;;;;;;;;;;;;;;;-1.26;84.04;101064.36;106258;1254;73347;-82
2023/12/03 07:18:21;;;;;;;;;;;;;;;-1.24;84.03;101070.68;106173;1253;124759;-81
2023/12/03 07:20:47;;;;;;;;;;;;;;;-1.23;83.86;101071.83;106140;1257;72647;-81
2023/12/03 07:23:14;;;;;;;;;;;;;;;-1.22;84.07;101069.49;106138;1254;124580;-81
2023/12/03 07:25:41;;;;;;;;;;;;;;;-1.20;83.83;101074.61;106175;1260;61334;-81
2023/12/03 07:28:08;;;;;;;;;;;;;;;-1.18;83.78;101079.41;106209;1253;73294;-81
2023/12/03 07:30:35;;;;;;;;;;;;;;;-1.16;83.93;101083.19;106103;1257;125051;-81
2023/12/03 07:33:03;;;;;;;;;;;;;;;-1.14;83.93;101080.42;106202;1257;72722;-81
2023/12/03 07:35:30;;;;;;;;;;;;;;;-1.12;83.76;101086.60;106131;1257;125163;-81
2023/12/03 07:37:56;;;;;;;;;;;;;;;-1.10;83.67;101087.42;106224;1257;59289;-82
2023/12/03 07:40:23;;;;;;;;;;;;;;;-1.10;83.41;101088.66;106242;1254;73005;-82
2023/12/03 07:42:50;;;;;;;;;;;;;;;-1.09;83.44;101091.26;106802;1258;123633;-82
2023/12/03 07:45:16;;;;;;;;;;;;;;;-1.11;83.55;101091.14;106177;1255;71423;-82
2023/12/03 07:47:43;;;;;;;;;;;;;;;-1.14;83.26;101096.95;106105;1258;124025;-82
2023/12/03 07:50:10;;;;;;;;;;;;;;;-1.16;83.41;101095.59;106109;1254;59942;-82
2023/12/03 07:52:36;;;;;;;;;;;;;;;-1.17;83.19;101097.04;106053;1254;124197;-81
2023/12/03 07:55:03;;;;;;;;;;;;;;;-1.19;83.11;101096.38;106122;1255;66253;-82
2023/12/03 07:57:30;;;;;;;;;;;;;;;-1.20;83.18;101100.45;106166;1259;72129;-82
2023/12/03 07:59:58;;;;;;;;;;;;;;;-1.20;83.24;101099.07;105975;1257;124732;-82
2023/12/03 08:02:24;;;;;;;;;;;;;;;-1.19;83.19;101100.15;106095;1254;61266;-82
2023/12/03 08:04:51;;;;;;;;;;;;;;;-1.18;83.10;101102.83;105997;1254;124906;-82
2023/12/03 08:07:18;;;;;;;;;;;;;;;-1.17;82.96;101104.27;106166;1257;66240;-82
2023/12/03 08:09:44;;;;;;;;;;;;;;;-1.16;82.97;101110.23;106103;1259;70154;-82
2023/12/03 08:12:11;;;;;;;;;;;;;;;-1.14;82.89;101114.00;106062;1256;124868;-82
2023/12/03 08:14:38;;;;;;;;;;;;;;;-1.13;82.95;101115.26;106041;1260;61199;-82
2023/12/03 08:17:06;;;;;;;;;;;;;;;-1.12;82.91;101117.93;105911;1257;124768;-82
2023/12/03 08:19:33;;;;;;;;;;;;;;;-1.10;82.87;101120.54;106119;1260;66242;-82
2023/12/03 08:21:59;;;;;;;;;;;;;;;-1.08;82.95;101120.67;106119;1257;72691;-82
2023/12/03 08:24:26;;;;;;;;;;;;;;;-1.05;82.70;101116.88;106191;1253;124672;-82
2023/12/03 08:26:53;;;;;;;;;;;;;;;-1.03;82.99;101116.56;106242;1257;61148;-83
2023/12/03 08:29:20;;;;;;;;;;;;;;;-0.99;82.80;101118.75;106129;1253;124702;-81
2023/12/03 08:31:49;;;;;;;;;;;;;;;-0.95;82.76;101118.69;106225;1254;65215;-82
2023/12/03 08:34:17;;;;;;;;;;;;;;;-0.90;82.73;101117.69;106843;1253;71062;-82
2023/12/03 08:36:44;;;;;;;;;;;;;;;-0.85;82.69;101113.48;106691;1253;124493;-82
2023/12/03 08:39:10;;;;;;;;;;;;;;;-0.79;82.60;101114.59;106841;1253;61870;-82
2023/12/03 08:41:37;;;;;;;;;;;;;;;-0.73;82.60;101114.83;106672;1259;125008;-82
2023/12/03 08:44:04;;;;;;;;;;;;;;;-0.68;82.53;101113.67;106194;1254;66015;-82
2023/12/03 08:46:31;;;;;;;;;;;;;;;-0.64;82.52;101112.13;106186;1253;124948;-82
2023/12/03 08:48:58;;;;;;;;;;;;;;;-0.56;82.58;101115.32;106324;1254;61269;-82
2023/12/03 08:51:25;;;;;;;;;;;;;;;-0.49;82.54;101114.96;106215;1254;61362;-82
2023/12/03 08:53:51;;;;;;;;;;;;;;;-0.43;82.29;101120.90;106175;1254;124915;-82
2023/12/03 08:56:18;;;;;;;;;;;;;;;-0.38;82.27;101121.67;106218;1254;64741;-82
2023/12/03 08:58:45;;;;;;;;;;;;;;;-0.30;82.02;101123.11;106192;1254;124424;-82
2023/12/03 09:01:11;;;;;;;;;;;;;;;-0.22;81.90;101125.26;106278;1257;61241;-82
2023/12/03 09:03:40;;;;;;;;;;;;;;;-0.16;81.88;101121.37;106228;1257;61362;-82
2023/12/03 09:06:07;;;;;;;;;;;;;;;-0.11;81.60;101123.99;106184;1257;123951;-82
2023/12/03 09:08:33;;;;;;;;;;;;;;;-0.06;81.58;101127.98;106289;1257;65951;-82
2023/12/03 09:11:00;;;;;;;;;;;;;;;-0.02;81.49;101128.44;106104;1257;124064;-82
2023/12/03 09:13:27;;;;;;;;;;;;;;;0.01;81.41;101128.14;106266;1253;61253;-82
2023/12/03 09:15:56;;;;;;;;;;;;;;;0.04;81.25;101129.01;106235;1256;61231;-82
2023/12/03 09:18:22;;;;;;;;;;;;;;;0.07;81.20;101130.11;106301;1254;123745;-83
2023/12/03 09:20:50;;;;;;;;;;;;;;;0.10;81.23;101126.02;106377;1254;65043;-81
2023/12/03 09:23:17;;;;;;;;;;;;;;;0.13;81.06;101126.12;106813;1257;123804;-82
2023/12/03 09:25:44;;;;;;;;;;;;;;;0.16;81.11;101126.13;106861;1254;61295;-82
2023/12/03 09:28:11;;;;;;;;;;;;;;;0.21;81.06;101125.45;106232;1254;61241;-83
2023/12/03 09:30:37;;;;;;;;;;;;;;;0.25;81.00;101122.45;106077;1253;124113;-85
2023/12/03 09:33:04;;;;;;;;;;;;;;;0.28;80.86;101121.09;106924;1254;65486;-81
2023/12/03 09:35:31;;;;;;;;;;;;;;;0.31;80.83;101115.76;105935;1260;124457;-82
2023/12/03 09:37:58;;;;;;;;;;;;;;;0.34;80.84;101112.56;106234;1254;61357;-82
2023/12/03 09:40:25;;;;;;;;;;;;;;;0.39;80.80;101111.88;106253;1257;124080;-80
2023/12/03 09:42:52;;;;;;;;;;;;;;;0.41;80.63;101111.30;106304;1254;74690;-81
2023/12/03 09:45:19;;;;;;;;;;;;;;;0.44;80.58;101114.11;106223;1257;66297;-81
2023/12/03 09:47:49;;;;;;;;;;;;;;;0.47;80.49;101117.66;106192;1254;123714;-82
2023/12/03 09:50:16;;;;;;;;;;;;;;;0.53;80.60;101115.79;106834;1254;59527;-82
2023/12/03 09:52:43;;;;;;;;;;;;;;;0.60;80.65;101113.52;106782;1256;124055;-82
2023/12/03 09:55:10;;;;;;;;;;;;;;;0.68;80.61;101111.71;106821;1254;73075;-82
2023/12/03 09:57:36;;;;;;;;;;;;;;;0.80;80.69;101111.80;106250;1254;67043;-82
2023/12/03 10:00:06;;;;;;;;;;;;;;;0.94;80.60;101112.48;106205;1257;124613;-82
2023/12/03 10:02:33;;;;;;;;;;;;;;;1.16;80.86;101112.73;106671;1253;61384;-82
2023/12/03 10:05:01;;;;;;;;;;;;;;;1.43;80.77;101111.78;106838;1254;125080;-82
2023/12/03 10:07:29;;;;;;;;;;;;;;;1.69;80.78;101112.20;106833;1254;73765;-82
2023/12/03 10:09:59;;;;;;;;;;;;;;;1.96;80.51;101110.77;106724;1254;66252;-82
2023/12/03 10:12:32;;;;;;;;;;;;;;;2.18;80.25;101109.63;106795;1257;124366;-83
2023/12/03 10:14:59;;;;;;;;;;;;;;;2.30;79.83;101109.87;106921;1253;61589;-82
2023/12/03 10:17:27;;;;;;;;;;;;;;;2.34;79.42;101113.07;106872;1257;124437;-82
2023/12/03 10:19:54;;;;;;;;;;;;;;;2.37;79.26;101110.66;106858;1254;74692;-82
2023/12/03 10:22:31;;;;;;;;;;;;;;;2.35;78.97;101109.52;106850;1254;66061;-84
2023/12/03 10:24:58;;;;;;;;;;;;;;;2.38;78.99;101109.88;107508;1254;71518;-83
2023/12/03 10:27:29;;;;;;;;;;;;;;;2.45;78.81;101107.03;106730;1254;61157;-83
2023/12/03 10:29:56;;;;;;;;;;;;;;;2.54;78.85;101108.31;107053;1254;124408;-83
2023/12/03 10:32:23;;;;;;;;;;;;;;;2.66;78.66;101108.30;106817;1254;74706;-82
2023/12/03 10:34:50;;;;;;;;;;;;;;;2.77;78.61;101106.97;106703;1257;124772;-83
2023/12/03 10:37:17;;;;;;;;;;;;;;;2.90;78.63;101103.95;106735;1254;71683;-83
2023/12/03 10:39:44;;;;;;;;;;;;;;;3.02;78.27;101102.38;106665;1254;59261;-83
2023/12/03 10:42:10;;;;;;;;;;;;;;;3.13;78.18;101103.08;106749;1257;124432;-83
2023/12/03 10:44:40;;;;;;;;;;;;;;;3.29;78.20;101105.90;106843;1253;74672;-83
2023/12/03 10:47:07;;;;;;;;;;;;;;;3.43;77.86;101104.85;106714;1253;124697;-82
2023/12/03 10:49:34;;;;;;;;;;;;;;;3.58;77.75;101109.36;106876;1254;72553;-82
2023/12/03 10:52:01;;;;;;;;;;;;;;;3.76;77.80;101109.77;106815;1253;61298;-82
2023/12/03 10:54:28;;;;;;;;;;;;;;;3.93;77.52;101110.34;106803;1254;123745;-83
2023/12/03 10:56:54;;;;;;;;;;;;;;;4.05;77.19;101108.98;106797;1259;74786;-83
2023/12/03 10:59:23;;;;;;;;;;;;;;;4.17;76.72;101111.03;106738;1253;123876;-83
2023/12/03 11:01:52;;;;;;;;;;;;;;;4.25;76.61;101104.54;106870;1254;71173;-83
2023/12/03 11:04:38;;;;;;;;;;;;;;;4.38;76.62;101105.08;106738;1254;61257;-83
2023/12/03 11:07:06;;;;;;;;;;;;;;;4.48;76.24;101106.84;106939;1253;61240;-83
2023/12/03 11:09:36;;;;;;;;;;;;;;;4.47;75.85;101107.50;107351;1254;74680;-82
2023/12/03 11:12:04;;;;;;;;;;;;;;;4.40;75.62;101108.16;106766;1254;123831;-82
2023/12/03 11:14:30;;;;;;;;;;;;;;;4.28;75.28;101111.31;106913;1253;72425;-83
2023/12/03 11:16:57;;;;;;;;;;;;;;;4.18;75.29;101115.77;106700;1257;124890;-82
2023/12/03 11:19:24;;;;;;;;;;;;;;;4.07;75.21;101116.75;106781;1253;61253;-82
2023/12/03 11:21:56;;;;;;;;;;;;;;;4.02;75.06;101112.60;106684;1254;74485;-82
2023/12/03 11:24:29;;;;;;;;;;;;;;;3.97;74.93;101111.27;106769;1253;124662;-83
2023/12/03 11:26:57;;;;;;;;;;;;;;;3.94;75.03;101115.06;106832;1253;71429;-82
2023/12/03 11:29:43;;;;;;;;;;;;;;;3.92;75.06;101110.13;107166;1257;124590;-83
2023/12/03 11:32:09;;;;;;;;;;;;;;;3.92;75.06;101106.66;106826;1256;61220;-83
2023/12/03 11:34:37;;;;;;;;;;;;;;;3.90;74.95;101107.61;106620;1254;124604;-81
2023/12/03 11:37:03;;;;;;;;;;;;;;;3.89;74.81;101109.63;106732;1258;66129;-83
2023/12/03 11:39:33;;;;;;;;;;;;;;;3.88;74.78;101110.59;106874;1254;71389;-79
2023/12/03 11:42:01;;;;;;;;;;;;;;;3.86;74.66;101116.06;106764;1254;124186;-78
2023/12/03 11:44:27;;;;;;;;;;;;;;;3.81;74.35;101114.73;106785;1254;61503;-79
2023/12/03 11:47:05;;;;;;;;;;;;;;;3.73;74.29;101114.59;105933;1254;123833;-78
2023/12/03 11:49:35;;;;;;;;;;;;;;;3.67;74.34;101121.03;106064;1254;66287;-78
2023/12/03 11:52:03;;;;;;;;;;;;;;;3.65;74.30;101125.21;106047;1258;71079;-78
2023/12/03 11:54:48;;;;;;;;;;;;;;;3.62;74.31;101125.91;106066;1254;123760;-78
2023/12/03 11:57:15;;;;;;;;;;;;;;;3.60;74.45;101125.61;106822;1255;61273;-79
2023/12/03 11:59:42;;;;;;;;;;;;;;;3.62;74.44;101129.73;106029;1254;124297;-79
2023/12/03 12:02:09;;;;;;;;;;;;;;;3.65;74.69;101129.58;106115;1254;65096;-79
2023/12/03 12:04:36;;;;;;;;;;;;;;;3.67;74.65;101129.36;106536;1254;124026;-78
2023/12/03 12:07:15;;;;;;;;;;;;;;;3.68;74.58;101131.85;106167;1256;61228;-78
2023/12/03 12:09:42;;;;;;;;;;;;;;;3.66;74.42;101131.02;106199;1254;61414;-77
2023/12/03 12:12:09;;;;;;;;;;;;;;;3.59;74.26;101133.23;106020;1254;124164;-80
2023/12/03 12:14:35;;;;;;;;;;;;;;;3.48;74.12;101138.66;106828;1253;66230;-78
2023/12/03 12:17:03;;;;;;;;;;;;;;;3.40;74.15;101134.52;106054;1254;124274;-77
2023/12/03 12:19:30;;;;;;;;;;;;;;;3.27;74.07;101135.80;106198;1254;61292;-77
2023/12/03 12:21:57;;;;;;;;;;;;;;;3.09;73.87;101139.09;106180;1254;61157;-78
2023/12/03 12:24:23;;;;;;;;;;;;;;;2.99;74.07;101144.30;106113;1254;123757;-78
2023/12/03 12:26:50;;;;;;;;;;;;;;;2.91;74.14;101142.30;106093;1259;65573;-78
2023/12/03 12:29:18;;;;;;;;;;;;;;;2.84;74.42;101142.55;106611;1254;124174;-78
2023/12/03 12:31:45;;;;;;;;;;;;;;;2.80;74.52;101143.02;106167;1254;61259;-79